Time;durP1;ratioP1;P1;durP2;ratioP2;P2;SDS_P1;SDS_P2;PMS_P1;PMS_P2;Temp;Humidity;BMP_temperature;BMP_pressure;BME280_temperature;BME280_humidity;BME280_pressure;Samples;Min_cycle;Max_cycle;Signal;HPM_P1;HPM_P2
2023/09/29 00:00:47;;;;;;;13.15;4.53;;;15.90;99.90;;;;;;6183856;23;20036;-72
2023/09/29 00:03:15;;;;;;;14.45;4.18;;;15.90;99.90;;;;;;6210861;23;20144;-73
2023/09/29 00:05:44;;;;;;;10.32;4.13;;;15.90;99.90;;;;;;6183750;23;20017;-72
2023/09/29 00:08:13;;;;;;;13.68;4.38;;;15.80;99.90;;;;;;6183907;23;20024;-73
2023/09/29 00:10:39;;;;;;;14.32;4.53;;;15.80;99.90;;;;;;6210449;23;20087;-72
2023/09/29 00:13:07;;;;;;;11.10;4.43;;;15.80;99.90;;;;;;6210715;23;20020;-72
2023/09/29 00:15:33;;;;;;;16.08;5.40;;;15.80;99.90;;;;;;6211227;23;20373;-73
2023/09/29 00:18:00;;;;;;;17.58;4.55;;;15.70;99.90;;;;;;6210796;23;20051;-73
2023/09/29 00:20:26;;;;;;;15.20;5.00;;;15.80;99.90;;;;;;6183853;23;20051;-73
2023/09/29 00:22:53;;;;;;;16.67;5.38;;;15.80;99.90;;;;;;6211019;23;20016;-72
2023/09/29 00:25:19;;;;;;;15.32;5.90;;;15.70;99.90;;;;;;6183746;23;20024;-73
2023/09/29 00:27:45;;;;;;;17.65;6.10;;;15.80;99.90;;;;;;6210813;23;20028;-73
2023/09/29 00:30:14;;;;;;;13.23;6.22;;;15.80;99.90;;;;;;6183762;23;20020;-73
2023/09/29 00:32:51;;;;;;;16.20;5.60;;;15.80;99.90;;;;;;6210675;23;20454;-72
2023/09/29 00:37:53;;;;;;;13.18;5.13;;;15.80;99.90;;;;;;6211167;23;20440;-72
2023/09/29 00:40:19;;;;;;;13.55;5.45;;;15.80;99.90;;;;;;6212634;23;20016;-73
2023/09/29 00:42:46;;;;;;;13.52;5.43;;;15.80;99.90;;;;;;6212025;23;20016;-73
2023/09/29 00:45:16;;;;;;;18.15;5.68;;;15.90;99.90;;;;;;6185426;23;20035;-73
2023/09/29 00:47:44;;;;;;;14.43;5.82;;;15.90;99.90;;;;;;6185266;23;20025;-73
2023/09/29 00:50:14;;;;;;;21.35;7.68;;;15.90;99.90;;;;;;6210534;23;20722;-72
2023/09/29 00:52:40;;;;;;;19.23;7.30;;;16.00;99.90;;;;;;6210837;23;20383;-73
2023/09/29 00:55:11;;;;;;;20.17;7.72;;;16.20;99.90;;;;;;6210994;23;20401;-72
2023/09/29 00:57:40;;;;;;;20.63;7.93;;;16.30;99.90;;;;;;6210723;23;20356;-72
2023/09/29 01:00:29;;;;;;;20.75;7.90;;;16.40;99.90;;;;;;6211012;23;20430;-72
2023/09/29 01:03:08;;;;;;;20.02;7.93;;;16.40;99.90;;;;;;6183455;23;20383;-73
2023/09/29 01:05:42;;;;;;;16.88;7.00;;;16.50;99.90;;;;;;6210773;23;20710;-73
2023/09/29 01:08:10;;;;;;;19.67;7.60;;;16.50;99.90;;;;;;6210460;23;20400;-72
2023/09/29 01:10:37;;;;;;;22.48;7.40;;;16.60;99.90;;;;;;6183782;23;20380;-72
2023/09/29 01:13:03;;;;;;;18.48;7.35;;;16.60;99.90;;;;;;6210292;23;20392;-72
2023/09/29 01:15:29;;;;;;;19.17;7.55;;;16.70;99.90;;;;;;6210390;23;20457;-73
2023/09/29 01:17:54;;;;;;;19.88;7.47;;;16.70;99.90;;;;;;6210313;23;20364;-73
2023/09/29 01:20:30;;;;;;;20.30;7.72;;;16.70;99.90;;;;;;6210306;23;20367;-73
2023/09/29 01:23:00;;;;;;;23.10;8.13;;;16.70;99.90;;;;;;6210795;23;20787;-73
2023/09/29 01:25:27;;;;;;;21.38;7.68;;;16.80;99.90;;;;;;6183447;23;20791;-72
2023/09/29 01:27:54;;;;;;;13.75;5.82;;;16.70;99.90;;;;;;6185116;23;20103;-73
2023/09/29 01:30:20;;;;;;;17.92;6.22;;;16.50;99.90;;;;;;6212351;23;20020;-73
2023/09/29 01:32:51;;;;;;;13.20;6.05;;;16.50;99.90;;;;;;6185321;23;20029;-73
2023/09/29 01:35:21;;;;;;;14.48;5.50;;;16.40;99.90;;;;;;6212247;23;20032;-73
2023/09/29 01:37:48;;;;;;;13.65;6.32;;;16.30;99.90;;;;;;6212851;23;20031;-73
2023/09/29 01:40:15;;;;;;;14.63;5.75;;;16.30;99.90;;;;;;6214973;23;20040;-72
2023/09/29 01:42:42;;;;;;;14.48;5.78;;;16.30;99.90;;;;;;6186423;23;20020;-73
2023/09/29 01:45:15;;;;;;;18.63;5.68;;;16.30;99.90;;;;;;6212732;23;20352;-73
2023/09/29 01:47:46;;;;;;;17.40;5.75;;;16.30;99.90;;;;;;6211856;23;20039;-73
2023/09/29 01:50:20;;;;;;;13.77;5.95;;;16.30;99.90;;;;;;6184737;23;20036;-73
2023/09/29 01:52:47;;;;;;;15.65;6.05;;;16.30;99.90;;;;;;6211830;23;20024;-72
2023/09/29 01:55:14;;;;;;;14.90;5.78;;;16.30;99.90;;;;;;6184788;23;20021;-73
2023/09/29 01:57:44;;;;;;;22.25;7.00;;;16.30;99.90;;;;;;6211723;23;20092;-73
2023/09/29 02:00:24;;;;;;;18.73;5.70;;;16.30;99.90;;;;;;6185954;23;20076;-73
2023/09/29 02:02:51;;;;;;;15.07;5.55;;;16.30;99.90;;;;;;6184653;23;20028;-73
2023/09/29 02:05:16;;;;;;;19.90;6.20;;;16.30;99.90;;;;;;6184412;23;20120;-73
2023/09/29 02:07:43;;;;;;;14.85;5.63;;;16.30;99.90;;;;;;6211175;23;20017;-73
2023/09/29 02:10:09;;;;;;;13.80;6.53;;;16.30;99.90;;;;;;6184389;23;20017;-73
2023/09/29 02:12:46;;;;;;;13.43;6.03;;;16.30;99.90;;;;;;6184410;23;20021;-73
2023/09/29 02:15:16;;;;;;;14.68;6.25;;;16.30;99.90;;;;;;6184060;23;20024;-73
2023/09/29 02:17:42;;;;;;;23.38;7.93;;;16.30;99.90;;;;;;6211487;23;20043;-73
2023/09/29 02:20:12;;;;;;;20.42;7.25;;;16.30;99.90;;;;;;6184313;23;20028;-73
2023/09/29 02:22:37;;;;;;;18.38;6.97;;;16.30;99.90;;;;;;6211279;23;20090;-73
2023/09/29 02:25:04;;;;;;;16.98;6.60;;;16.30;99.90;;;;;;6184185;23;20024;-72
2023/09/29 02:27:29;;;;;;;19.98;6.30;;;16.30;99.90;;;;;;6211312;23;20052;-73
2023/09/29 02:29:55;;;;;;;18.85;6.72;;;16.30;99.90;;;;;;6210702;23;20027;-72
2023/09/29 02:32:22;;;;;;;13.38;6.40;;;16.30;99.90;;;;;;6210915;23;20086;-73
2023/09/29 02:34:48;;;;;;;15.75;6.53;;;16.30;99.90;;;;;;6184205;23;20028;-73
2023/09/29 02:37:14;;;;;;;14.38;6.43;;;16.30;99.90;;;;;;6211235;23;20020;-73
2023/09/29 02:39:39;;;;;;;15.65;6.15;;;16.30;99.90;;;;;;6210984;23;20056;-73
2023/09/29 02:42:05;;;;;;;15.98;6.32;;;16.30;99.90;;;;;;6159549;23;20024;-74
2023/09/29 02:44:33;;;;;;;14.90;6.05;;;16.30;99.90;;;;;;6210610;23;20114;-73
2023/09/29 02:46:59;;;;;;;11.88;6.05;;;16.30;99.90;;;;;;6210984;23;20020;-73
2023/09/29 02:49:28;;;;;;;17.30;6.38;;;16.30;99.90;;;;;;6159156;23;20079;-73
2023/09/29 02:51:53;;;;;;;24.10;7.05;;;16.30;99.90;;;;;;6184170;23;20021;-73
2023/09/29 02:54:19;;;;;;;13.80;6.78;;;16.30;99.90;;;;;;6211144;23;20090;-73
2023/09/29 02:56:45;;;;;;;12.95;5.53;;;16.30;99.90;;;;;;6210928;23;20393;-72
2023/09/29 02:59:12;;;;;;;15.05;6.45;;;16.30;99.90;;;;;;6210472;23;20024;-72
2023/09/29 03:01:38;;;;;;;13.60;7.30;;;16.30;99.90;;;;;;6210235;23;20016;-73
2023/09/29 03:04:07;;;;;;;14.32;6.50;;;16.40;99.90;;;;;;6210712;23;20032;-73
2023/09/29 03:06:32;;;;;;;13.70;6.28;;;16.40;99.90;;;;;;6211094;23;20028;-73
2023/09/29 03:08:59;;;;;;;16.77;6.43;;;16.40;99.90;;;;;;6184136;23;20380;-73
2023/09/29 03:11:25;;;;;;;14.02;6.07;;;16.30;99.90;;;;;;6184156;23;20504;-73
2023/09/29 03:13:55;;;;;;;17.33;7.35;;;16.30;99.90;;;;;;6210571;23;20024;-73
2023/09/29 03:16:24;;;;;;;16.50;6.85;;;16.30;99.90;;;;;;6211155;23;20009;-73
2023/09/29 03:18:50;;;;;;;17.58;7.43;;;16.30;99.90;;;;;;6211072;23;20095;-73
2023/09/29 03:21:16;;;;;;;17.02;6.95;;;16.40;99.90;;;;;;6211045;23;20023;-73
2023/09/29 03:23:43;;;;;;;15.80;7.13;;;16.30;99.90;;;;;;6183960;23;20017;-73
2023/09/29 03:26:09;;;;;;;16.55;6.53;;;16.40;99.90;;;;;;6210641;23;20021;-73
2023/09/29 03:28:35;;;;;;;15.48;7.25;;;16.30;99.90;;;;;;6183520;23;20024;-73
2023/09/29 03:31:06;;;;;;;15.73;7.60;;;16.40;99.90;;;;;;6211110;23;20587;-73
2023/09/29 03:33:32;;;;;;;15.45;7.35;;;16.30;99.90;;;;;;6210899;23;20043;-73
2023/09/29 03:35:58;;;;;;;16.38;7.60;;;16.30;99.90;;;;;;6183696;23;20056;-73
2023/09/29 03:38:25;;;;;;;19.20;8.10;;;16.30;99.90;;;;;;6210691;23;20048;-73
2023/09/29 03:40:54;;;;;;;19.80;8.15;;;16.30;99.90;;;;;;6210427;23;20108;-73
2023/09/29 03:43:21;;;;;;;18.27;7.22;;;16.30;99.90;;;;;;6210188;23;20051;-73
2023/09/29 03:45:47;;;;;;;22.90;8.52;;;16.30;99.90;;;;;;6183820;23;20083;-73
2023/09/29 03:48:15;;;;;;;15.70;7.65;;;16.30;99.90;;;;;;6210492;23;20387;-73
2023/09/29 03:50:41;;;;;;;16.55;8.32;;;16.30;99.90;;;;;;6210881;23;20348;-73
2023/09/29 03:53:07;;;;;;;15.88;7.97;;;16.30;99.90;;;;;;6183687;23;20103;-74
2023/09/29 03:55:33;;;;;;;14.50;7.40;;;16.30;99.90;;;;;;6210912;23;20020;-73
2023/09/29 03:58:00;;;;;;;19.42;9.15;;;16.40;99.90;;;;;;6183623;23;20019;-73
2023/09/29 04:00:26;;;;;;;19.67;9.55;;;16.40;99.90;;;;;;6184178;23;20019;-73
2023/09/29 04:02:52;;;;;;;21.73;9.02;;;16.40;99.90;;;;;;6184141;23;20119;-73
2023/09/29 04:05:19;;;;;;;23.83;9.05;;;16.40;99.90;;;;;;6210901;23;20094;-73
2023/09/29 04:07:45;;;;;;;13.60;7.78;;;16.40;99.90;;;;;;6183443;23;20078;-73
2023/09/29 04:10:12;;;;;;;14.07;8.80;;;16.40;99.90;;;;;;6210344;23;20029;-73
2023/09/29 04:12:40;;;;;;;21.70;9.10;;;16.40;99.90;;;;;;6210831;23;20020;-73
2023/09/29 04:15:07;;;;;;;15.52;9.13;;;16.50;99.90;;;;;;6212606;23;20027;-73
2023/09/29 04:17:34;;;;;;;22.85;9.13;;;16.50;99.90;;;;;;6185901;23;20016;-73
2023/09/29 04:19:59;;;;;;;18.05;8.82;;;16.50;99.90;;;;;;6212603;23;20465;-73
2023/09/29 04:22:25;;;;;;;17.45;8.15;;;16.50;99.90;;;;;;6186409;23;20020;-72
2023/09/29 04:24:51;;;;;;;16.45;8.50;;;16.50;99.90;;;;;;6214458;23;20067;-73
2023/09/29 04:27:17;;;;;;;14.88;7.82;;;16.50;99.90;;;;;;6212873;23;20086;-73
2023/09/29 04:29:42;;;;;;;13.45;7.90;;;16.50;99.90;;;;;;6186535;23;20025;-73
2023/09/29 04:32:08;;;;;;;18.48;7.68;;;16.50;99.90;;;;;;6213070;23;20017;-73
2023/09/29 04:34:34;;;;;;;19.60;7.40;;;16.60;99.90;;;;;;6185698;23;20031;-73
2023/09/29 04:37:00;;;;;;;19.52;8.07;;;16.60;99.90;;;;;;6212084;23;20021;-72
2023/09/29 04:39:25;;;;;;;17.48;7.50;;;16.60;99.90;;;;;;6185487;23;20085;-73
2023/09/29 04:41:51;;;;;;;19.85;7.90;;;16.60;99.90;;;;;;6211898;23;20786;-73
2023/09/29 04:44:17;;;;;;;17.15;7.10;;;16.70;99.90;;;;;;6212446;23;20035;-73
2023/09/29 04:46:43;;;;;;;17.50;7.53;;;16.70;99.90;;;;;;6212446;23;20060;-73
2023/09/29 04:49:09;;;;;;;20.85;7.65;;;16.70;99.90;;;;;;6212538;23;20095;-73
2023/09/29 04:51:36;;;;;;;13.52;7.55;;;16.70;99.90;;;;;;6212256;23;20396;-73
2023/09/29 04:54:03;;;;;;;16.33;8.38;;;16.70;99.90;;;;;;6211832;23;20079;-73
2023/09/29 04:56:29;;;;;;;10.25;7.22;;;16.70;99.90;;;;;;6211601;23;20028;-73
2023/09/29 04:58:54;;;;;;;12.18;7.60;;;16.70;99.90;;;;;;6185269;23;20021;-72
2023/09/29 05:01:21;;;;;;;16.40;7.40;;;16.80;99.90;;;;;;6212031;23;20017;-73
2023/09/29 05:03:50;;;;;;;15.27;7.78;;;16.80;99.90;;;;;;6211999;23;20028;-73
2023/09/29 05:06:17;;;;;;;13.65;6.63;;;16.80;99.90;;;;;;6212064;23;20353;-72
2023/09/29 05:08:44;;;;;;;18.35;7.25;;;16.80;99.90;;;;;;6185181;23;20453;-73
2023/09/29 05:11:22;;;;;;;14.57;7.57;;;16.80;99.90;;;;;;6211776;23;20044;-73
2023/09/29 05:13:48;;;;;;;12.88;6.65;;;16.80;99.90;;;;;;6185284;23;20441;-74
2023/09/29 05:16:15;;;;;;;14.57;6.10;;;16.80;99.90;;;;;;6211875;23;20476;-75
2023/09/29 05:18:40;;;;;;;14.77;6.35;;;16.90;99.90;;;;;;6184819;23;20025;-75
2023/09/29 05:21:06;;;;;;;18.35;7.72;;;16.80;99.90;;;;;;6212117;23;20066;-76
2023/09/29 05:23:32;;;;;;;13.13;6.53;;;16.90;99.90;;;;;;6211604;23;20472;-76
2023/09/29 05:26:04;;;;;;;17.58;6.63;;;16.90;99.90;;;;;;6184647;23;20068;-76
2023/09/29 05:28:30;;;;;;;15.68;8.25;;;16.90;99.90;;;;;;6210172;23;20375;-74
2023/09/29 05:30:56;;;;;;;13.52;7.50;;;17.00;99.90;;;;;;6212082;23;20032;-76
2023/09/29 05:33:22;;;;;;;12.80;6.07;;;17.00;99.90;;;;;;6211680;23;20108;-75
2023/09/29 05:35:48;;;;;;;12.75;7.05;;;16.90;99.90;;;;;;6211528;23;20024;-75
2023/09/29 05:38:14;;;;;;;15.32;6.22;;;16.90;99.90;;;;;;6184632;23;20088;-75
2023/09/29 05:40:40;;;;;;;11.63;6.30;;;16.90;99.90;;;;;;6160049;23;20024;-75
2023/09/29 05:43:09;;;;;;;15.55;6.68;;;16.90;99.90;;;;;;6184879;23;20039;-75
2023/09/29 05:45:36;;;;;;;15.25;5.75;;;16.90;99.90;;;;;;6212378;23;20036;-75
2023/09/29 05:48:03;;;;;;;11.25;6.32;;;16.90;99.90;;;;;;6184764;23;20084;-75
2023/09/29 05:50:28;;;;;;;9.65;5.40;;;17.00;99.90;;;;;;6184554;23;20504;-68
2023/09/29 05:52:56;;;;;;;12.68;5.18;;;16.90;99.90;;;;;;6211298;23;20130;-73
2023/09/29 05:55:22;;;;;;;12.00;5.80;;;17.00;99.90;;;;;;6211934;23;20385;-73
2023/09/29 05:57:49;;;;;;;15.88;5.85;;;17.00;99.90;;;;;;6211569;23;20020;-72
2023/09/29 06:00:16;;;;;;;13.07;5.38;;;17.00;99.90;;;;;;6211766;23;20020;-73
2023/09/29 06:02:43;;;;;;;12.38;5.40;;;17.00;99.90;;;;;;6211613;23;20008;-73
2023/09/29 06:05:11;;;;;;;11.98;5.40;;;17.00;99.90;;;;;;6211652;23;20020;-73
2023/09/29 06:07:37;;;;;;;9.55;4.97;;;17.00;99.90;;;;;;6184604;23;20521;-73
2023/09/29 06:10:04;;;;;;;12.07;5.25;;;17.00;99.90;;;;;;6211689;23;20048;-73
2023/09/29 06:12:30;;;;;;;10.63;5.28;;;17.00;99.90;;;;;;6211566;23;20070;-72
2023/09/29 06:14:56;;;;;;;12.30;4.88;;;17.00;99.90;;;;;;6211857;23;20012;-71
2023/09/29 06:17:22;;;;;;;10.45;5.25;;;17.00;99.90;;;;;;6211037;23;20132;-70
2023/09/29 06:19:48;;;;;;;9.18;5.10;;;17.10;99.90;;;;;;6211096;23;20052;-75
2023/09/29 06:22:14;;;;;;;10.27;5.00;;;17.00;99.90;;;;;;6211245;23;20039;-75
2023/09/29 06:24:42;;;;;;;6.72;4.60;;;17.00;99.90;;;;;;6184379;23;20055;-75
2023/09/29 06:27:07;;;;;;;8.93;4.88;;;17.10;99.90;;;;;;6184601;23;20021;-75
2023/09/29 06:29:33;;;;;;;10.63;4.85;;;17.00;99.90;;;;;;6184267;23;20035;-75
2023/09/29 06:31:59;;;;;;;9.38;4.20;;;17.10;99.90;;;;;;6211261;23;20024;-75
2023/09/29 06:34:24;;;;;;;8.82;4.63;;;17.10;99.90;;;;;;6183888;23;20021;-75
2023/09/29 06:36:50;;;;;;;7.60;4.57;;;17.10;99.90;;;;;;6210411;23;20021;-76
2023/09/29 06:39:16;;;;;;;8.13;4.28;;;17.10;99.90;;;;;;6210936;23;20110;-76
2023/09/29 06:41:42;;;;;;;10.40;4.82;;;17.10;99.90;;;;;;6211280;23;20020;-76
2023/09/29 06:44:08;;;;;;;10.60;4.40;;;17.20;99.90;;;;;;6211041;23;20103;-75
2023/09/29 06:46:33;;;;;;;9.73;3.72;;;17.10;99.90;;;;;;6159535;23;20028;-75
2023/09/29 06:49:01;;;;;;;7.82;4.00;;;17.20;99.90;;;;;;6210902;23;20482;-76
2023/09/29 06:51:27;;;;;;;7.55;3.58;;;17.10;99.90;;;;;;6184651;23;20020;-75
2023/09/29 06:53:52;;;;;;;9.73;3.90;;;17.20;99.90;;;;;;6212628;23;20020;-76
2023/09/29 06:56:18;;;;;;;6.43;3.72;;;17.20;99.90;;;;;;6212799;23;20054;-75
2023/09/29 06:58:44;;;;;;;8.45;4.55;;;17.20;99.90;;;;;;6211924;23;20091;-75
2023/09/29 07:01:10;;;;;;;7.70;3.72;;;17.20;99.90;;;;;;6185602;23;20352;-75
2023/09/29 07:03:36;;;;;;;6.97;3.33;;;17.20;99.90;;;;;;6184372;23;20055;-76
2023/09/29 07:06:02;;;;;;;5.45;3.72;;;17.20;99.90;;;;;;6183831;23;20174;-75
2023/09/29 07:08:28;;;;;;;6.47;3.50;;;17.20;99.90;;;;;;6184259;23;20021;-76
2023/09/29 07:10:55;;;;;;;9.30;4.13;;;17.20;99.90;;;;;;6185837;23;20319;-74
2023/09/29 07:13:20;;;;;;;6.75;3.38;;;17.20;99.90;;;;;;6184732;23;20020;-75
2023/09/29 07:15:46;;;;;;;7.82;3.72;;;17.20;99.90;;;;;;6211573;23;20203;-75
2023/09/29 07:18:13;;;;;;;8.75;3.40;;;17.30;99.90;;;;;;6210961;23;20097;-76
2023/09/29 07:20:39;;;;;;;7.10;3.33;;;17.30;99.90;;;;;;6210612;23;20333;-75
2023/09/29 07:23:08;;;;;;;7.00;3.33;;;17.30;99.90;;;;;;6183901;23;20484;-76
2023/09/29 07:25:35;;;;;;;8.93;3.35;;;17.40;99.90;;;;;;6210727;23;20027;-75
2023/09/29 07:28:01;;;;;;;5.38;2.92;;;17.50;99.90;;;;;;6183616;23;20660;-76
2023/09/29 07:30:26;;;;;;;10.02;3.50;;;17.50;99.90;;;;;;6181687;23;20028;-80
2023/09/29 07:32:52;;;;;;;7.97;3.28;;;17.50;99.90;;;;;;6208655;23;20520;-82
2023/09/29 07:35:18;;;;;;;5.13;3.42;;;17.50;99.90;;;;;;6209415;23;20029;-78
2023/09/29 07:37:45;;;;;;;6.50;3.42;;;17.60;99.90;;;;;;6210923;23;20094;-78
2023/09/29 07:40:11;;;;;;;9.20;3.30;;;17.60;99.90;;;;;;6210644;23;20024;-78
2023/09/29 07:42:37;;;;;;;5.50;3.55;;;17.60;99.90;;;;;;6183883;23;20416;-79
2023/09/29 07:45:04;;;;;;;7.55;3.70;;;17.50;99.90;;;;;;6210639;23;20028;-79
2023/09/29 07:47:30;;;;;;;6.30;3.63;;;17.60;99.90;;;;;;6210271;23;20024;-78
2023/09/29 07:49:55;;;;;;;5.97;3.30;;;17.60;99.90;;;;;;6183585;23;20020;-79
2023/09/29 07:52:27;;;;;;;7.70;3.33;;;17.60;99.90;;;;;;6183875;23;20454;-78
2023/09/29 07:54:54;;;;;;;9.90;3.67;;;17.60;99.90;;;;;;6211104;23;20737;-78
2023/09/29 07:57:20;;;;;;;6.78;3.13;;;17.70;99.90;;;;;;6183588;23;20020;-78
2023/09/29 07:59:45;;;;;;;10.27;3.20;;;17.80;99.90;;;;;;6183910;23;20075;-78
2023/09/29 08:02:11;;;;;;;7.78;4.10;;;17.80;99.90;;;;;;6183740;23;20024;-78
2023/09/29 08:04:37;;;;;;;10.57;3.63;;;17.90;99.90;;;;;;6183626;23;20016;-78
2023/09/29 08:07:02;;;;;;;6.13;3.53;;;17.90;99.90;;;;;;6183829;23;20025;-78
2023/09/29 08:09:28;;;;;;;6.25;3.47;;;18.00;99.90;;;;;;6183701;23;20079;-78
2023/09/29 08:11:54;;;;;;;11.82;3.78;;;18.00;99.90;;;;;;6183756;23;20377;-78
2023/09/29 08:14:20;;;;;;;4.78;3.25;;;18.00;99.90;;;;;;6210454;23;20016;-78
2023/09/29 08:16:46;;;;;;;8.50;3.40;;;18.00;99.90;;;;;;6210404;23;20025;-78
2023/09/29 08:19:11;;;;;;;4.93;3.35;;;18.10;99.90;;;;;;6183377;23;20045;-77
2023/09/29 08:21:38;;;;;;;4.85;3.35;;;18.10;99.90;;;;;;6210975;23;20031;-78
2023/09/29 08:24:06;;;;;;;7.47;3.90;;;18.20;99.90;;;;;;6210580;23;20036;-78
2023/09/29 08:26:32;;;;;;;8.27;3.20;;;18.30;99.90;;;;;;6183700;23;20017;-78
2023/09/29 08:29:00;;;;;;;7.25;3.40;;;18.40;99.90;;;;;;6210370;23;20445;-78
2023/09/29 08:31:25;;;;;;;5.05;3.40;;;18.40;99.90;;;;;;6183556;23;20017;-78
2023/09/29 08:33:51;;;;;;;5.35;3.20;;;18.40;99.90;;;;;;6182694;23;20031;-77
2023/09/29 08:36:17;;;;;;;9.55;3.72;;;18.50;99.90;;;;;;6210359;23;20092;-77
2023/09/29 08:38:43;;;;;;;5.63;3.47;;;18.50;99.90;;;;;;6183534;23;20016;-75
2023/09/29 08:41:09;;;;;;;5.32;3.15;;;18.60;99.90;;;;;;6210558;23;20025;-74
2023/09/29 08:43:36;;;;;;;5.75;3.60;;;18.60;99.90;;;;;;6210857;23;20020;-76
2023/09/29 08:46:03;;;;;;;7.25;2.53;;;18.70;99.90;;;;;;6183810;23;20012;-68
2023/09/29 08:48:35;;;;;;;8.55;3.50;;;18.80;99.90;;;;;;6210186;23;20088;-73
2023/09/29 08:51:02;;;;;;;5.38;3.20;;;18.90;99.90;;;;;;6210579;23;20020;-75
2023/09/29 08:53:28;;;;;;;5.63;3.08;;;18.90;99.90;;;;;;6183778;23;20780;-76
2023/09/29 08:55:55;;;;;;;5.30;2.95;;;18.90;99.90;;;;;;6210624;23;20044;-75
2023/09/29 08:58:23;;;;;;;4.78;3.33;;;19.00;99.90;;;;;;6210624;23;20394;-76
2023/09/29 09:00:50;;;;;;;7.05;3.03;;;19.00;99.90;;;;;;6185376;23;20083;-75
2023/09/29 09:03:18;;;;;;;6.97;3.13;;;19.00;99.90;;;;;;6211683;23;20096;-76
2023/09/29 09:05:44;;;;;;;6.57;3.30;;;19.10;99.90;;;;;;6185350;23;20024;-76
2023/09/29 09:08:13;;;;;;;5.60;3.28;;;19.10;99.90;;;;;;6185324;23;20573;-75
2023/09/29 09:10:40;;;;;;;5.50;3.20;;;19.10;99.90;;;;;;6211588;23;20031;-75
2023/09/29 09:13:07;;;;;;;3.97;3.10;;;19.20;99.90;;;;;;6212135;23;20025;-75
2023/09/29 09:15:32;;;;;;;8.82;3.33;;;19.30;99.90;;;;;;6211930;23;20029;-76
2023/09/29 09:17:58;;;;;;;5.18;3.17;;;19.30;99.90;;;;;;6212229;23;20032;-76
2023/09/29 09:20:25;;;;;;;5.13;3.00;;;19.40;99.90;;;;;;6212226;23;20074;-75
2023/09/29 09:23:01;;;;;;;6.32;3.22;;;19.40;99.90;;;;;;6212253;23;20396;-75
2023/09/29 09:25:38;;;;;;;4.28;2.95;;;19.50;99.90;;;;;;6211948;23;20163;-75
2023/09/29 09:28:05;;;;;;;5.78;2.92;;;19.50;99.90;;;;;;6212187;23;20095;-76
2023/09/29 09:30:36;;;;;;;6.25;3.20;;;19.50;99.90;;;;;;6211829;23;20012;-76
2023/09/29 09:33:04;;;;;;;5.63;2.97;;;19.50;99.90;;;;;;6211658;23;20025;-76
2023/09/29 09:35:30;;;;;;;6.30;3.20;;;19.60;99.90;;;;;;6211679;23;20025;-75
2023/09/29 09:37:57;;;;;;;9.93;2.92;;;19.60;99.90;;;;;;6211908;23;20044;-76
2023/09/29 09:40:27;;;;;;;7.68;3.05;;;19.70;99.90;;;;;;6212165;23;20091;-76
2023/09/29 09:43:03;;;;;;;4.68;2.72;;;19.70;99.90;;;;;;6211946;23;20384;-76
2023/09/29 09:45:44;;;;;;;4.75;2.58;;;19.70;99.90;;;;;;6211732;23;20074;-75
2023/09/29 09:48:13;;;;;;;10.57;3.20;;;19.80;99.90;;;;;;6212067;23;20013;-76
2023/09/29 09:50:43;;;;;;;4.05;2.80;;;19.70;99.90;;;;;;6211495;23;20020;-76
2023/09/29 09:53:12;;;;;;;3.92;2.60;;;19.80;99.90;;;;;;6212096;23;20040;-76
2023/09/29 09:55:41;;;;;;;6.85;2.67;;;19.90;99.90;;;;;;6161562;23;20021;-76
2023/09/29 09:58:16;;;;;;;4.15;2.55;;;20.00;99.90;;;;;;6187549;23;20032;-76
2023/09/29 10:00:45;;;;;;;6.85;2.92;;;20.00;99.90;;;;;;6214876;23;20405;-76
2023/09/29 10:03:15;;;;;;;5.57;2.90;;;20.00;99.90;;;;;;6185675;23;20406;-78
2023/09/29 10:05:51;;;;;;;5.68;2.60;;;20.00;99.90;;;;;;6184711;23;20104;-77
2023/09/29 10:08:29;;;;;;;4.63;2.63;;;20.00;99.90;;;;;;6159837;23;20108;-77
2023/09/29 10:11:10;;;;;;;5.90;2.70;;;20.00;99.90;;;;;;6184426;23;20020;-77
2023/09/29 10:13:37;;;;;;;3.83;2.67;;;20.00;99.90;;;;;;6211270;23;20020;-78
2023/09/29 10:16:05;;;;;;;6.43;2.63;;;20.00;99.90;;;;;;6184486;23;20079;-77
2023/09/29 10:18:33;;;;;;;5.90;2.67;;;20.00;99.90;;;;;;6184695;23;20059;-78
2023/09/29 10:21:06;;;;;;;5.40;2.67;;;20.00;99.90;;;;;;6211795;23;20079;-78
2023/09/29 10:23:45;;;;;;;4.50;2.60;;;20.00;99.90;;;;;;6211572;23;20020;-78
2023/09/29 10:26:11;;;;;;;3.78;2.58;;;20.00;99.90;;;;;;6184830;23;20067;-78
2023/09/29 10:28:40;;;;;;;5.57;2.95;;;20.00;99.90;;;;;;6184710;23;20257;-78
2023/09/29 10:31:15;;;;;;;6.30;2.80;;;20.10;99.90;;;;;;6185272;23;20330;-78
2023/09/29 10:33:54;;;;;;;5.10;2.97;;;20.10;99.90;;;;;;6184779;23;20013;-76
2023/09/29 10:36:28;;;;;;;4.72;2.63;;;20.00;99.90;;;;;;6242097;23;20020;-77
2023/09/29 10:38:57;;;;;;;5.50;2.78;;;20.00;99.90;;;;;;6214893;23;20027;-78
2023/09/29 10:41:23;;;;;;;5.20;3.10;;;20.00;99.90;;;;;;6242095;23;20031;-78
2023/09/29 10:43:50;;;;;;;4.65;2.70;;;20.00;99.90;;;;;;6241861;23;20055;-78
2023/09/29 10:46:17;;;;;;;7.50;3.08;;;19.90;99.90;;;;;;6242149;23;20016;-78
2023/09/29 10:48:48;;;;;;;7.00;3.40;;;20.00;99.90;;;;;;6241969;23;20019;-81
2023/09/29 10:51:28;;;;;;;6.57;3.08;;;20.00;99.90;;;;;;6191946;23;20076;-83
2023/09/29 10:53:55;;;;;;;5.75;3.05;;;20.00;99.90;;;;;;6243644;23;20023;-83
2023/09/29 10:56:24;;;;;;;7.15;3.00;;;20.00;99.90;;;;;;6216625;23;20016;-83
2023/09/29 10:58:54;;;;;;;6.32;3.17;;;20.00;99.90;;;;;;6215533;23;20016;-83
2023/09/29 11:01:27;;;;;;;5.40;2.60;;;20.00;99.90;;;;;;6242890;23;20317;-83
2023/09/29 11:03:55;;;;;;;7.90;3.25;;;20.10;99.90;;;;;;6215673;23;20024;-86
2023/09/29 11:06:21;;;;;;;4.70;3.00;;;20.10;99.90;;;;;;6215860;23;20027;-84
2023/09/29 11:08:58;;;;;;;7.47;3.30;;;20.10;99.90;;;;;;6215696;23;20095;-86
2023/09/29 11:11:35;;;;;;;3.97;3.03;;;20.20;99.90;;;;;;6215848;23;20020;-85
2023/09/29 11:14:04;;;;;;;10.35;3.33;;;20.20;99.90;;;;;;6215581;23;20048;-84
2023/09/29 11:16:30;;;;;;;6.68;2.92;;;20.30;99.90;;;;;;6242770;23;20032;-84
2023/09/29 11:19:06;;;;;;;4.97;3.08;;;20.30;99.90;;;;;;6215657;23;20442;-84
2023/09/29 11:21:36;;;;;;;7.07;3.08;;;20.40;99.90;;;;;;6242339;23;20059;-77
2023/09/29 11:24:13;;;;;;;6.00;3.08;;;20.30;99.90;;;;;;6241075;23;20016;-72
2023/09/29 11:26:48;;;;;;;6.55;3.25;;;20.40;99.90;;;;;;6214100;23;20020;-80
2023/09/29 11:29:22;;;;;;;7.43;3.53;;;20.40;99.90;;;;;;6215358;23;20083;-77
2023/09/29 11:31:49;;;;;;;;;;;20.40;99.90;;;;;;6242964;23;20015;-83
2023/09/29 11:34:15;;;;;;;;;;;20.40;99.90;;;;;;6210107;23;19915;-83
2023/09/29 11:36:43;;;;;;;;;;;20.40;99.90;;;;;;6185847;23;19911;-83
2023/09/29 11:39:09;;;;;;;;;;;20.40;99.90;;;;;;6185721;23;19991;-83
2023/09/29 11:41:34;;;;;;;;;;;20.40;99.90;;;;;;6211989;23;19923;-76
2023/09/29 11:44:00;;;;;;;9.77;3.28;;;20.40;99.90;;;;;;6210941;23;19912;-83
2023/09/29 11:46:26;;;;;;;7.20;3.25;;;20.40;99.90;;;;;;6184179;23;20043;-74
2023/09/29 11:48:53;;;;;;;6.47;3.60;;;20.40;99.90;;;;;;6184452;23;20129;-74
2023/09/29 11:51:18;;;;;;;5.28;3.05;;;20.40;99.90;;;;;;6212438;23;20013;-75
2023/09/29 11:53:44;;;;;;;6.47;3.65;;;20.50;99.90;;;;;;6211091;23;20350;-75
2023/09/29 11:56:10;;;;;;;5.78;2.70;;;20.50;99.90;;;;;;6183959;23;20079;-75
2023/09/29 11:58:37;;;;;;;6.55;3.35;;;20.60;99.90;;;;;;6210914;23;20096;-74
2023/09/29 12:01:03;;;;;;;4.97;3.05;;;20.60;99.90;;;;;;6210576;23;20024;-75
2023/09/29 12:03:29;;;;;;;11.32;3.70;;;20.50;99.90;;;;;;6210810;23;20017;-75
2023/09/29 12:05:58;;;;;;;6.68;3.13;;;20.60;99.90;;;;;;6210431;23;20079;-75
2023/09/29 12:08:23;;;;;;;5.22;2.95;;;20.60;99.90;;;;;;6210938;23;20020;-75
2023/09/29 12:10:49;;;;;;;8.20;3.15;;;20.60;99.90;;;;;;6210305;23;20028;-73
2023/09/29 12:13:15;;;;;;;9.00;3.58;;;20.60;99.90;;;;;;6183985;23;20025;-75
2023/09/29 12:15:44;;;;;;;6.05;3.58;;;20.60;99.90;;;;;;6211012;23;20017;-75
2023/09/29 12:18:10;;;;;;;6.20;3.60;;;20.60;99.90;;;;;;6210930;23;20420;-75
2023/09/29 12:20:38;;;;;;;6.32;3.33;;;20.60;99.90;;;;;;6210800;23;20134;-75
2023/09/29 12:23:06;;;;;;;6.28;3.70;;;20.50;99.90;;;;;;6184277;23;20021;-75
2023/09/29 12:25:32;;;;;;;6.25;3.83;;;20.60;99.90;;;;;;6210561;23;20095;-75
2023/09/29 12:27:58;;;;;;;7.28;3.92;;;20.60;99.90;;;;;;6183694;23;20020;-75
2023/09/29 12:30:25;;;;;;;6.18;3.40;;;20.60;99.90;;;;;;6183861;23;20099;-75
2023/09/29 12:32:51;;;;;;;6.55;3.53;;;20.60;99.90;;;;;;6210376;23;20532;-77
2023/09/29 12:35:16;;;;;;;7.28;3.90;;;20.60;99.90;;;;;;6212668;23;20044;-78
2023/09/29 12:37:43;;;;;;;11.27;3.85;;;20.60;99.90;;;;;;6212936;23;20453;-78
2023/09/29 12:40:11;;;;;;;5.50;3.45;;;20.60;99.90;;;;;;6212834;23;20044;-78
2023/09/29 12:42:40;;;;;;;8.38;3.45;;;20.60;99.90;;;;;;6214029;23;20063;-73
2023/09/29 12:45:11;;;;;;;11.07;3.58;;;20.50;99.90;;;;;;6216140;23;20021;-72
2023/09/29 12:47:36;;;;;;;6.90;3.80;;;20.40;99.90;;;;;;6213088;23;20028;-71